Friday, March 27, 2015, 11:38 AM EDT

KLNS, Lancaster Airport

Location: Lititz, PA, United States Lat: 40.117
Local Time: 11:38 AM EDT (15:38 GMT) Lon: -76.3
Time Zone: US/Eastern Elev: 403 ft

Show me the last for .
Show Decoded

2015-03-27 10:53 METAR KLNS 271453Z 35007KT 10SM FEW033 SCT046 BKN110 06/M01 A2981 RMK AO2 SLP094
                 T00561011 53003 =
2015-03-27 09:53 METAR KLNS 271353Z 36005KT 10SM FEW042 BKN110 05/00 A2979 RMK AO2 SLP091
                 T00500000 =
2015-03-27 08:53 METAR KLNS 271253Z 35006KT 10SM OVC100 04/01 A2979 RMK AO2 SLP088 T00440006 =
2015-03-27 07:53 METAR KLNS 271153Z 33007KT 10SM SCT032 OVC070 04/01 A2980 RMK AO2 SLP091 60010
                 70076 T00390006 10061 20039 53001 =
2015-03-27 07:05 METAR KLNS 271105Z 36008KT 10SM SCT027 BKN070 OVC110 04/01 A2977 RMK AO2
                 T00390011 =
2015-03-27 06:53 METAR KLNS 271053Z 36007KT 10SM BKN026 OVC080 04/02 A2977 RMK AO2 RAE0959 SLP083
                 P0000 T00390017 =
2015-03-27 05:04 METAR KLNS 270904Z AUTO 32003KT 8SM -RA BKN020 OVC034 05/04 A2979 RMK AO2 P0000
                 T00500039 =
2015-03-27 04:53 METAR KLNS 270853Z AUTO 00000KT 9SM -RA SCT024 OVC032 05/04 A2979 RMK AO2 SLP089
                 P0004 60009 T00500039 53012 =
2015-03-27 03:34 METAR KLNS 270734Z AUTO 34006KT 8SM -RA SCT023 OVC036 06/03 A2977 RMK AO2 P0002
                 T00560033 =
2015-03-27 02:53 METAR KLNS 270653Z AUTO 34004KT 10SM -RA BKN025 OVC070 06/03 A2978 RMK AO2
                 SLP086 P0001 T00560033 =
2015-03-27 02:41 METAR KLNS 270641Z AUTO 33005KT 10SM -RA BKN026 BKN037 OVC075 06/03 A2979 RMK
                 AO2 P0000 T00610033 =
2015-03-27 02:33 METAR KLNS 270633Z AUTO 32005KT 10SM -RA SCT024 BKN050 OVC075 06/03 A2979 RMK
                 AO2 P0000 T00610033 =
2015-03-27 02:10 METAR KLNS 270610Z AUTO 33005KT 10SM -RA BKN023 OVC085 06/04 A2977 RMK AO2 P0000
                 T00610039 =
2015-03-27 01:53 METAR KLNS 270553Z AUTO 33008KT 9SM -RA FEW025 SCT065 OVC085 06/04 A2976 RMK AO2
                 SLP077 P0002 60012 T00610039 10117 20061 53007 =
2015-03-27 00:53 METAR KLNS 270453Z AUTO 32008KT 8SM -RA FEW024 SCT055 OVC080 07/04 A2976 RMK AO2
                 RAB27 SLP077 P0001 T00670044 401890006 =
2015-03-26 23:53 METAR KLNS 270353Z AUTO 32008KT 10SM FEW020 BKN090 OVC110 07/04 A2974 RMK AO2
                 SLP071 T00720044 =
2015-03-26 23:50 METAR KLNS 270350Z AUTO 32008KT 10SM SCT020 BKN090 OVC110 07/04 A2974 RMK AO2 =
2015-03-26 22:53 METAR KLNS 270253Z AUTO 33007KT 10SM OVC017 08/05 A2973 RMK AO2 SLP068 60009
                 T00780050 51027 =
2015-03-26 22:19 METAR KLNS 270219Z 32011KT 10SM BKN019 BKN085 OVC110 08/06 A2973 RMK AO2
                 T00830056 =
2015-03-26 21:53 METAR KLNS 270153Z 33008KT 10SM SCT018 BKN080 OVC110 09/06 A2970 RMK AO2 SLP057
                 T00890061 =
2015-03-26 21:38 METAR KLNS 270138Z 33011KT 10SM SCT015 BKN075 OVC100 09/07 A2971 RMK AO2
                 T00940072 =
2015-03-26 21:31 METAR KLNS 270131Z 33008KT 10SM BKN016 OVC080 10/07 A2970 RMK AO2 T01000072 =
2015-03-26 21:00 METAR KLNS 270100Z 34011KT 9SM BKN014 OVC065 11/09 A2969 RMK AO2 T01110089 =
2015-03-26 20:53 METAR KLNS 270053Z 33009KT 9SM SCT017 BKN060 OVC100 11/09 A2968 RMK AO2 RAE45
                 SLP053 P0009 T01110089 =
2015-03-26 20:00 METAR KLNS 270000Z 33008KT 3SM +RA BR BKN045 OVC070 12/11 A2965 RMK AO2 LTG DSNT
                 E P0002 T01170106 =
2015-03-26 19:53 METAR KLNS 262353Z 33007KT 2 1/2SM RA BR FEW031 BKN041 OVC070 12/11 A2965 RMK
                 AO2 PK WND 30026/2258 WSHFT 2256 LTG DSNT NE AND E RAB03 TSB2257E21 SLP041 P0046
                 60046 T01170106 10189 20117 53014 =
2015-03-26 19:37 METAR KLNS 262337Z 31010KT 1 3/4SM +RA BR FEW027 BKN035 OVC065 12/11 A2966 RMK
                 AO2 PK WND 30026/2258 WSHFT 2256 LTG DSNT NE AND E AND SW RAB03 TSB2257E21 P0039
                 T01170111 =
2015-03-26 19:27 METAR KLNS 262327Z 34011KT 2 1/2SM VCTS +RA BR FEW008 SCT020 OVC030 12/11 A2963
                 RMK AO2 PK WND 30026/2258 WSHFT 2256 LTG DSNT NE AND SW RAB03 TSB2257E21 P0030
                 T01220111 =
2015-03-26 19:20 METAR KLNS 262320Z 33013G18KT 2SM +TSRA BR FEW006 BKN030 OVC070 12/11 A2963 RMK
                 AO2 PK WND 30026/2258 WSHFT 2256 LTG DSNT ALQDS RAB03 TSB2257 P0027 T01220111 =
2015-03-26 19:16 METAR KLNS 262316Z 34013G22KT 1 1/4SM +TSRA BR FEW006 BKN023 OVC090 13/12 A2962
                 RMK AO2 PK WND 30026/2258 WSHFT 2256 LTG DSNT ALQDS RAB03 TSB2257 P0025
                 T01280117 =
2015-03-26 19:09 METAR KLNS 262309Z 35015G26KT 1 3/4SM +TSRA BR SCT008 BKN020 OVC090 13/12 A2963
                 RMK AO2 PK WND 30026/2258 WSHFT 2250 LTG DSNT W-NE RAB03 TSB2257 P0018 T01330117
                 =
2015-03-26 19:07 METAR KLNS 262307Z 33018G26KT 3SM +TSRA BR FEW008 BKN070 OVC090 14/12 A2963 RMK
                 AO2 PK WND 30026/2258 WSHFT 2250 LTG DSNT W-NE RAB03 TSB2257 PRESRR P0011
                 T01390117 =
2015-03-26 19:00 METAR KLNS 262300Z 30020G26KT 10SM TS FEW022 SCT070 OVC090 18/14 A2960 RMK AO2
                 PK WND 30026/2258 WSHFT 2246 LTG DSNT W-NE TSB2257 PRESRR T01780139 =
2015-03-26 18:53 METAR KLNS 262253Z 19012G22KT 10SM SCT070 BKN090 18/14 A2955 RMK AO2 LTG DSNT
                 W-N SLP005 T01830144 =
2015-03-26 17:53 METAR KLNS 262153Z 18011G19KT 10SM FEW075 FEW095 18/14 A2955 RMK AO2 SLP008
                 T01830144 =
2015-03-26 17:36 METAR KLNS 262136Z 20011KT 10SM SCT017 BKN075 BKN095 19/15 A2958 RMK AO2
                 T01890150 =
2015-03-26 16:53 METAR KLNS 262053Z 18011G24KT 9SM OVC019 18/14 A2961 RMK AO2 SLP026 T01830144
                 56037 =
2015-03-26 16:10 METAR KLNS 262010Z 19011KT 8SM BKN015 OVC020 18/14 A2961 RMK AO2 T01830144 =
2015-03-26 15:53 METAR KLNS 261953Z 20013G20KT 7SM OVC011 17/14 A2962 RMK AO2 SLP032 T01720144 =
2015-03-26 14:53 METAR KLNS 261853Z 19013KT 7SM OVC011 16/13 A2966 RMK AO2 PRESFR SLP043
                 T01560133 =
2015-03-26 14:42 METAR KLNS 261842Z 19012KT 8SM OVC011 16/13 A2967 RMK AO2 PRESFR T01560133 =
2015-03-26 13:53 METAR KLNS 261753Z 23010G18KT 10SM OVC012 16/13 A2972 RMK AO2 SLP063 60008
                 T01560133 10156 20017 56051 =
2015-03-26 13:13 METAR KLNS 261713Z 18011KT 7SM BKN010 OVC013 14/13 A2974 RMK AO2 CIG 007V011
                 T01440128 =
2015-03-26 13:05 METAR KLNS 261705Z 17010KT 5SM BR BKN008 BKN022 OVC080 14/13 A2975 RMK AO2 CIG
                 007V015 T01440133 =
2015-03-26 12:39 METAR KLNS 261639Z 00000KT 2SM BR FEW024 BKN070 OVC080 12/12 A2976 RMK AO2 LTG
                 DSNT SE RAE35 P0004 T01220117 =
2015-03-26 12:17 METAR KLNS 261617Z 10007KT 1 1/4SM -RA BR FEW035 OVC055 09/09 A2978 RMK AO2
                 PRESFR P0003 T00940089 =
2015-03-26 12:02 METAR KLNS 261602Z 09005KT 2SM -RA BR BKN060 OVC080 09/08 A2981 RMK AO2 P0001
                 T00890078 =
2015-03-26 11:53 METAR KLNS 261553Z 08005KT 3SM -RA BR BKN070 OVC085 09/07 A2982 RMK AO2 RAB10
                 PRESFR SLP098 P0004 T00890072 =

Support USWX by starting your Amazon purchase here.